createdAt,value
2023-02-11T00:00:11.741Z,56.64
2023-02-11T00:02:56.774Z,56.95
2023-02-11T00:05:42.018Z,56.49
2023-02-11T00:08:26.950Z,56.89
2023-02-11T00:11:11.761Z,57.70
2023-02-11T00:13:56.759Z,56.96
2023-02-11T00:16:41.692Z,57.03
2023-02-11T00:19:26.609Z,56.85
2023-02-11T00:22:11.542Z,57.27
2023-02-11T00:24:56.347Z,58.28
2023-02-11T00:27:41.103Z,57.92
2023-02-11T00:30:26.073Z,58.38
2023-02-11T00:33:10.905Z,57.67
2023-02-11T00:35:55.847Z,57.76
2023-02-11T00:38:40.932Z,58.31
2023-02-11T00:41:25.781Z,58.59
2023-02-11T00:44:10.668Z,58.03
2023-02-11T00:46:55.419Z,57.26
2023-02-11T00:49:40.420Z,57.63
2023-02-11T00:52:25.259Z,58.72
2023-02-11T00:55:10.187Z,58.79
2023-02-11T00:57:55.115Z,58.35
2023-02-11T01:00:40.023Z,58.66
2023-02-11T01:03:25.158Z,58.79
2023-02-11T01:06:10.002Z,59.77
2023-02-11T01:08:54.967Z,58.03
2023-02-11T01:11:39.829Z,57.91
2023-02-11T01:14:24.769Z,57.72
2023-02-11T01:17:09.711Z,57.43
2023-02-11T01:19:54.534Z,56.78
2023-02-11T01:22:39.572Z,56.65
2023-02-11T01:25:24.488Z,57.61
2023-02-11T01:28:09.496Z,55.15
2023-02-11T01:30:54.465Z,54.33
2023-02-11T01:33:39.471Z,54.75
2023-02-11T01:36:24.423Z,54.35
2023-02-11T01:39:09.349Z,53.88
2023-02-11T01:41:54.277Z,54.01
2023-02-11T01:44:39.120Z,55.23
2023-02-11T01:47:23.931Z,55.21
2023-02-11T01:50:08.723Z,54.94
2023-02-11T01:52:53.631Z,54.43
2023-02-11T01:55:38.449Z,53.72
2023-02-11T01:58:23.351Z,54.48
2023-02-11T02:01:08.194Z,53.89
2023-02-11T02:03:53.174Z,54.45
2023-02-11T02:06:38.010Z,53.07
2023-02-11T02:09:23.099Z,54.43
2023-02-11T02:12:07.942Z,53.80
2023-02-11T02:14:52.930Z,53.26
2023-02-11T02:17:38.082Z,55.38
2023-02-11T02:20:22.871Z,54.56
2023-02-11T02:23:07.809Z,54.95
2023-02-11T02:25:52.614Z,54.84
2023-02-11T02:28:37.509Z,54.32
2023-02-11T02:31:22.519Z,54.85
2023-02-11T02:34:07.283Z,54.27
2023-02-11T02:36:52.151Z,54.35
2023-02-11T02:39:37.035Z,55.22
2023-02-11T02:42:22.042Z,54.69
2023-02-11T02:45:06.931Z,54.12
2023-02-11T02:47:52.065Z,55.37
2023-02-11T02:50:36.816Z,54.69
2023-02-11T02:53:21.670Z,55.61
2023-02-11T02:56:06.551Z,55.07
2023-02-11T02:58:51.595Z,54.89
2023-02-11T03:01:36.391Z,55.40
2023-02-11T03:04:21.192Z,55.58
2023-02-11T03:07:06.125Z,55.13
2023-02-11T03:09:51.041Z,55.97
2023-02-11T03:12:36.088Z,55.90
2023-02-11T03:15:21.005Z,56.87
2023-02-11T03:18:05.963Z,56.24
2023-02-11T03:20:50.730Z,55.86
2023-02-11T03:23:35.685Z,57.28
2023-02-11T03:26:20.540Z,57.00
2023-02-11T03:29:05.430Z,57.46
2023-02-11T03:31:50.447Z,57.46
2023-02-11T03:34:35.319Z,57.11
2023-02-11T03:37:20.319Z,56.97
2023-02-11T03:40:05.126Z,57.65
2023-02-11T03:42:49.957Z,57.37
2023-02-11T03:45:34.971Z,57.76
2023-02-11T03:48:19.806Z,57.09
2023-02-11T03:51:04.687Z,57.44
2023-02-11T03:53:49.700Z,58.17
2023-02-11T03:56:34.634Z,57.35
2023-02-11T03:59:19.346Z,56.84
2023-02-11T04:02:04.183Z,57.84
2023-02-11T04:04:48.925Z,58.14
2023-02-11T04:07:33.897Z,57.61
2023-02-11T04:10:18.686Z,58.40
2023-02-11T04:13:03.553Z,59.38
2023-02-11T04:15:49.091Z,59.90
2023-02-11T04:18:34.428Z,58.63
2023-02-11T04:21:19.426Z,58.76
2023-02-11T04:24:04.325Z,58.79
2023-02-11T04:26:49.192Z,58.02
2023-02-11T04:29:33.919Z,58.12
2023-02-11T04:32:18.763Z,58.36
2023-02-11T04:35:03.666Z,58.24
2023-02-11T04:37:48.523Z,58.34
2023-02-11T04:40:33.398Z,57.90
2023-02-11T04:43:18.184Z,57.35
2023-02-11T04:46:03.254Z,58.21
2023-02-11T04:48:47.877Z,57.40
2023-02-11T04:51:32.901Z,57.87
2023-02-11T04:54:17.858Z,58.15
2023-02-11T04:57:02.836Z,58.04
2023-02-11T04:59:47.835Z,57.93
2023-02-11T05:02:32.768Z,58.26
2023-02-11T05:05:17.627Z,58.81
2023-02-11T05:08:02.452Z,58.39
2023-02-11T05:10:47.418Z,58.73
2023-02-11T05:13:32.229Z,59.81
2023-02-11T05:16:17.242Z,58.22
2023-02-11T05:19:02.160Z,58.20
2023-02-11T05:22:01.331Z,59.15
2023-02-11T05:24:47.152Z,58.66
2023-02-11T05:27:32.062Z,58.29
2023-02-11T05:30:16.985Z,58.33
2023-02-11T05:33:01.861Z,58.34
2023-02-11T05:35:46.697Z,57.85
2023-02-11T05:38:31.687Z,59.17
2023-02-11T05:41:16.579Z,58.58
2023-02-11T05:44:01.406Z,58.63
2023-02-11T05:46:46.337Z,58.32
2023-02-11T05:49:31.099Z,58.49
2023-02-11T05:52:15.989Z,59.13
2023-02-11T05:55:00.877Z,59.22
2023-02-11T05:57:45.787Z,59.39
2023-02-11T06:00:30.707Z,59.60
2023-02-11T06:03:15.699Z,59.53
2023-02-11T06:06:01.791Z,59.46
2023-02-11T06:08:46.722Z,60.98
2023-02-11T06:11:31.730Z,60.37
2023-02-11T06:14:16.569Z,60.38
2023-02-11T06:17:01.417Z,60.43
2023-02-11T06:19:46.428Z,60.54
2023-02-11T06:22:31.368Z,61.00
2023-02-11T06:25:16.305Z,60.78
2023-02-11T06:28:01.056Z,61.12
2023-02-11T06:30:45.969Z,59.87
2023-02-11T06:33:30.872Z,61.10
2023-02-11T06:36:15.719Z,61.27
2023-02-11T06:39:00.542Z,60.22
2023-02-11T06:41:45.420Z,60.68
2023-02-11T06:44:30.236Z,60.48
2023-02-11T06:47:15.102Z,60.21
2023-02-11T06:49:59.907Z,59.36
2023-02-11T06:52:44.816Z,59.35
2023-02-11T06:55:29.601Z,59.94
2023-02-11T06:58:14.582Z,60.14
2023-02-11T07:00:59.580Z,60.42
2023-02-11T07:03:44.520Z,59.75
2023-02-11T07:06:29.470Z,59.86
2023-02-11T07:09:14.238Z,59.83
2023-02-11T07:11:59.106Z,60.27
2023-02-11T07:14:44.115Z,60.01
2023-02-11T07:17:28.928Z,60.61
2023-02-11T07:20:13.823Z,59.80
2023-02-11T07:22:58.625Z,59.10
2023-02-11T07:25:43.490Z,59.90
2023-02-11T07:28:28.303Z,61.25
2023-02-11T07:31:13.363Z,61.65
2023-02-11T07:33:58.624Z,62.17
2023-02-11T07:36:43.458Z,60.56
2023-02-11T07:39:28.398Z,59.93
2023-02-11T07:42:13.214Z,62.31
2023-02-11T07:44:58.225Z,61.28
2023-02-11T07:47:43.059Z,62.72
2023-02-11T07:50:28.176Z,63.28
2023-02-11T07:53:13.355Z,63.27
2023-02-11T07:55:58.307Z,63.40
2023-02-11T07:58:43.237Z,63.16
2023-02-11T08:01:28.177Z,62.80
2023-02-11T08:04:13.469Z,62.75
2023-02-11T08:06:59.230Z,62.54
2023-02-11T08:09:44.283Z,61.50
2023-02-11T08:12:29.128Z,60.02
2023-02-11T08:15:14.068Z,60.12
2023-02-11T08:17:59.042Z,61.83
2023-02-11T08:20:44.041Z,60.81
2023-02-11T08:23:29.048Z,60.71
2023-02-11T08:26:13.825Z,59.95
2023-02-11T08:28:58.808Z,60.21
2023-02-11T08:31:43.766Z,60.56
2023-02-11T08:34:28.928Z,60.04
2023-02-11T08:37:13.640Z,58.91
2023-02-11T08:39:58.603Z,58.35
2023-02-11T08:42:43.463Z,58.85
2023-02-11T08:45:28.282Z,60.82
2023-02-11T08:48:13.198Z,58.75
2023-02-11T08:50:57.903Z,59.20
2023-02-11T08:53:42.839Z,59.58
2023-02-11T08:56:27.756Z,59.05
2023-02-11T08:59:12.683Z,59.29
2023-02-11T09:01:57.690Z,61.88
2023-02-11T09:04:42.525Z,61.30
2023-02-11T09:07:27.413Z,59.92
2023-02-11T09:10:12.222Z,60.21
2023-02-11T09:12:57.237Z,58.65
2023-02-11T09:15:42.113Z,59.38
2023-02-11T09:18:27.057Z,57.53
2023-02-11T09:21:11.844Z,56.59
2023-02-11T09:23:56.741Z,55.80
2023-02-11T09:26:41.578Z,55.95
2023-02-11T09:29:26.624Z,54.57
2023-02-11T09:32:11.785Z,54.92
2023-02-11T09:34:57.081Z,54.07
2023-02-11T09:37:42.061Z,53.60
2023-02-11T09:40:26.831Z,54.25
2023-02-11T09:43:11.796Z,54.80
2023-02-11T09:45:56.721Z,52.91
2023-02-11T09:48:41.581Z,53.13
2023-02-11T09:51:26.436Z,53.46
2023-02-11T09:54:11.277Z,52.40
2023-02-11T09:56:56.212Z,54.68
2023-02-11T09:59:41.076Z,54.04
2023-02-11T10:02:26.167Z,53.46
2023-02-11T10:05:11.067Z,52.97
2023-02-11T10:07:55.938Z,55.53
2023-02-11T10:10:40.726Z,54.04
2023-02-11T10:13:25.527Z,52.68
2023-02-11T10:16:10.552Z,52.77
2023-02-11T10:18:55.839Z,52.80
2023-02-11T10:21:40.535Z,52.87
2023-02-11T10:24:25.487Z,52.38
2023-02-11T10:27:10.425Z,51.07
2023-02-11T10:29:55.325Z,51.42
2023-02-11T10:32:40.223Z,52.47
2023-02-11T10:35:25.069Z,51.06
2023-02-11T10:38:10.094Z,50.84
2023-02-11T10:40:54.968Z,49.46
2023-02-11T10:43:39.790Z,49.72
2023-02-11T10:46:24.815Z,50.97
2023-02-11T10:49:09.681Z,50.39
2023-02-11T10:51:54.663Z,49.24
2023-02-11T10:54:39.604Z,48.58
2023-02-11T10:57:24.548Z,48.71
2023-02-11T11:00:09.481Z,47.94
2023-02-11T11:02:54.473Z,45.99
2023-02-11T11:05:39.356Z,47.37
2023-02-11T11:08:24.250Z,45.89
2023-02-11T11:11:09.094Z,48.20
2023-02-11T11:13:54.019Z,46.21
2023-02-11T11:16:39.100Z,49.19
2023-02-11T11:19:23.940Z,48.38
2023-02-11T11:22:08.838Z,48.94
2023-02-11T11:24:53.714Z,48.95
2023-02-11T11:27:38.650Z,49.02
2023-02-11T11:30:23.455Z,49.36
2023-02-11T11:33:08.402Z,48.70
2023-02-11T11:35:53.222Z,48.14
2023-02-11T11:38:38.095Z,48.03
2023-02-11T11:41:23.584Z,46.94
2023-02-11T11:44:08.480Z,46.57
2023-02-11T11:46:53.406Z,45.75
2023-02-11T11:49:38.269Z,45.64
2023-02-11T11:52:23.361Z,46.32
2023-02-11T11:55:08.160Z,45.87
2023-02-11T11:57:52.986Z,44.63
2023-02-11T12:00:37.958Z,45.25
2023-02-11T12:03:22.948Z,43.70
2023-02-11T12:06:07.910Z,43.11
2023-02-11T12:08:52.861Z,43.35
2023-02-11T12:11:37.865Z,45.24
2023-02-11T12:14:22.742Z,44.91
2023-02-11T12:17:07.686Z,44.25
2023-02-11T12:19:52.509Z,43.55
2023-02-11T12:22:37.413Z,46.06
2023-02-11T12:25:22.249Z,44.54
2023-02-11T12:28:07.138Z,43.87
2023-02-11T12:30:52.295Z,43.47
2023-02-11T12:33:37.252Z,42.87
2023-02-11T12:36:22.161Z,41.63
2023-02-11T12:39:06.910Z,40.61
2023-02-11T12:41:51.910Z,39.37
2023-02-11T12:44:36.780Z,39.17
2023-02-11T12:47:21.779Z,38.64
2023-02-11T12:50:06.827Z,38.42
2023-02-11T12:52:51.697Z,39.54
2023-02-11T12:55:36.499Z,37.23
2023-02-11T12:58:25.422Z,37.36
2023-02-11T13:01:14.805Z,39.09
2023-02-11T13:03:59.703Z,39.18
2023-02-11T13:06:44.605Z,38.83
2023-02-11T13:09:29.566Z,39.20
2023-02-11T13:12:14.288Z,39.05
2023-02-11T13:14:59.239Z,39.11
2023-02-11T13:17:44.099Z,38.16
2023-02-11T13:20:28.985Z,39.23
2023-02-11T13:23:14.085Z,37.10
2023-02-11T13:25:58.971Z,38.43
2023-02-11T13:28:43.938Z,37.15
2023-02-11T13:31:28.897Z,36.04
2023-02-11T13:34:14.348Z,36.32
2023-02-11T13:36:59.351Z,35.20
2023-02-11T13:39:44.107Z,36.06
2023-02-11T13:42:28.949Z,37.07
2023-02-11T13:45:13.761Z,38.16
2023-02-11T13:47:58.768Z,36.86
2023-02-11T13:50:43.566Z,37.71
2023-02-11T13:53:28.553Z,35.66
2023-02-11T13:56:13.439Z,35.35
2023-02-11T13:59:01.476Z,34.14
2023-02-11T14:01:46.953Z,32.77
2023-02-11T14:04:31.811Z,33.31
2023-02-11T14:07:16.781Z,33.15
2023-02-11T14:10:01.581Z,31.91
2023-02-11T14:12:46.452Z,34.89
2023-02-11T14:15:31.478Z,32.23
2023-02-11T14:18:16.246Z,31.61
2023-02-11T14:21:03.464Z,33.89
2023-02-11T14:23:48.473Z,31.11
2023-02-11T14:26:33.417Z,31.06
2023-02-11T14:29:18.265Z,30.57
2023-02-11T14:32:05.764Z,30.98
2023-02-11T14:34:51.156Z,30.72
2023-02-11T14:37:35.849Z,30.71
2023-02-11T14:40:20.887Z,30.86
2023-02-11T14:43:06.405Z,30.66
2023-02-11T14:45:52.127Z,29.15
2023-02-11T14:48:37.009Z,29.69
2023-02-11T14:51:21.825Z,30.02
2023-02-11T14:54:06.762Z,29.80
2023-02-11T14:56:51.515Z,30.77
2023-02-11T14:59:36.387Z,30.34
2023-02-11T15:02:21.333Z,33.21
2023-02-11T15:05:06.171Z,32.80
2023-02-11T15:07:51.031Z,36.44
2023-02-11T15:10:35.843Z,36.42
2023-02-11T15:13:20.724Z,36.18
2023-02-11T15:16:05.606Z,38.36
2023-02-11T15:18:51.068Z,37.84
2023-02-11T15:21:35.901Z,39.11
2023-02-11T15:24:20.827Z,40.94
2023-02-11T15:27:05.650Z,41.17
2023-02-11T15:29:50.595Z,42.51
2023-02-11T15:32:35.553Z,43.13
2023-02-11T15:35:20.436Z,43.67
2023-02-11T15:38:05.289Z,44.68
2023-02-11T15:40:50.397Z,42.98
2023-02-11T15:43:35.707Z,44.71
2023-02-11T15:46:20.600Z,45.18
2023-02-11T15:49:07.769Z,46.06
2023-02-11T15:51:52.877Z,45.77
2023-02-11T15:54:37.732Z,46.74
2023-02-11T15:57:22.623Z,45.69
2023-02-11T16:00:07.391Z,45.29
2023-02-11T16:02:52.415Z,46.96
2023-02-11T16:05:37.357Z,46.14
2023-02-11T16:08:22.238Z,46.83
2023-02-11T16:11:07.079Z,46.78
2023-02-11T16:13:52.018Z,48.75
2023-02-11T16:16:37.041Z,49.08
2023-02-11T16:19:25.223Z,47.91
2023-02-11T16:22:10.858Z,48.62
2023-02-11T16:24:55.920Z,48.63
2023-02-11T16:27:40.762Z,47.00
2023-02-11T16:30:25.797Z,47.85
2023-02-11T16:33:10.621Z,47.72
2023-02-11T16:35:55.568Z,48.04
2023-02-11T16:38:40.381Z,46.92
2023-02-11T16:41:25.205Z,46.71
2023-02-11T16:44:10.055Z,46.74
2023-02-11T16:46:54.889Z,47.10
2023-02-11T16:49:39.792Z,47.45
2023-02-11T16:52:24.602Z,47.38
2023-02-11T16:55:09.521Z,48.08
2023-02-11T16:57:54.314Z,48.14
2023-02-11T17:00:39.129Z,47.95
2023-02-11T17:03:23.954Z,49.66
2023-02-11T17:06:08.871Z,50.28
2023-02-11T17:08:53.758Z,49.91
2023-02-11T17:11:38.739Z,48.97
2023-02-11T17:14:23.604Z,49.63
2023-02-11T17:17:08.574Z,48.46
2023-02-11T17:19:53.522Z,49.97
2023-02-11T17:22:38.479Z,50.47
2023-02-11T17:25:23.423Z,50.59
2023-02-11T17:28:08.288Z,50.48
2023-02-11T17:30:53.619Z,50.29
2023-02-11T17:33:38.500Z,52.44
2023-02-11T17:36:23.324Z,51.21
2023-02-11T17:39:08.482Z,50.85
2023-02-11T17:41:53.586Z,51.35
2023-02-11T17:44:38.605Z,52.66
2023-02-11T17:47:23.344Z,53.24
2023-02-11T17:50:08.427Z,52.81
2023-02-11T17:52:53.397Z,52.81
2023-02-11T17:55:38.290Z,52.79
2023-02-11T17:58:23.207Z,53.14
2023-02-11T18:01:08.100Z,51.95
2023-02-11T18:03:53.469Z,51.82
2023-02-11T18:06:38.249Z,51.18
2023-02-11T18:09:23.152Z,50.76
2023-02-11T18:12:08.023Z,52.78
2023-02-11T18:14:53.024Z,51.86
2023-02-11T18:17:37.835Z,53.19
2023-02-11T18:20:22.846Z,51.94
2023-02-11T18:23:07.613Z,51.24
2023-02-11T18:25:52.982Z,52.57
2023-02-11T18:28:37.968Z,53.11
2023-02-11T18:31:22.941Z,53.54
2023-02-11T18:34:07.954Z,53.20
2023-02-11T18:36:52.695Z,53.07
2023-02-11T18:39:37.666Z,54.00
2023-02-11T18:42:22.504Z,52.93
2023-02-11T18:45:07.380Z,53.13
2023-02-11T18:47:52.138Z,51.69
2023-02-11T18:50:37.022Z,51.42
2023-02-11T18:53:22.147Z,51.95
2023-02-11T18:56:06.972Z,52.99
2023-02-11T18:58:52.047Z,52.06
2023-02-11T19:01:36.869Z,51.94
2023-02-11T19:04:21.861Z,52.00
2023-02-11T19:07:06.669Z,52.18
2023-02-11T19:09:51.546Z,52.46
2023-02-11T19:12:36.457Z,51.78
2023-02-11T19:15:21.482Z,52.61
2023-02-11T19:18:06.413Z,52.99
2023-02-11T19:20:51.267Z,52.46
2023-02-11T19:23:36.205Z,51.91
2023-02-11T19:26:21.173Z,53.79
2023-02-11T19:29:05.983Z,53.23
2023-02-11T19:31:50.936Z,53.83
2023-02-11T19:34:36.240Z,53.13
2023-02-11T19:37:21.026Z,53.00
2023-02-11T19:40:06.053Z,54.59
2023-02-11T19:42:50.940Z,55.36
2023-02-11T19:45:35.727Z,54.92
2023-02-11T19:48:20.631Z,55.18
2023-02-11T19:51:05.490Z,55.00
2023-02-11T19:53:50.363Z,55.46
2023-02-11T19:56:35.373Z,55.00
2023-02-11T19:59:20.188Z,55.84
2023-02-11T20:02:05.056Z,56.31
2023-02-11T20:04:49.930Z,56.38
2023-02-11T20:07:34.923Z,56.38
2023-02-11T20:10:19.749Z,57.08
2023-02-11T20:13:04.733Z,55.42
2023-02-11T20:15:49.726Z,55.43
2023-02-11T20:18:34.937Z,55.81
2023-02-11T20:21:19.807Z,55.75
2023-02-11T20:24:04.625Z,54.47
2023-02-11T20:26:49.587Z,54.27
2023-02-11T20:29:34.520Z,54.64
2023-02-11T20:32:19.513Z,55.27
2023-02-11T20:35:04.860Z,53.40
2023-02-11T20:37:49.882Z,54.96
2023-02-11T20:40:34.727Z,55.22
2023-02-11T20:43:19.581Z,55.66
2023-02-11T20:46:04.521Z,56.58
2023-02-11T20:48:49.407Z,56.53
2023-02-11T20:51:34.326Z,54.96
2023-02-11T20:54:19.128Z,54.93
2023-02-11T20:57:04.072Z,54.36
2023-02-11T20:59:48.855Z,54.28
2023-02-11T21:02:33.814Z,53.81
2023-02-11T21:05:18.685Z,53.64
2023-02-11T21:08:03.759Z,54.78
2023-02-11T21:10:48.589Z,53.94
2023-02-11T21:13:33.404Z,53.36
2023-02-11T21:16:18.287Z,54.83
2023-02-11T21:19:03.102Z,54.64
2023-02-11T21:21:48.007Z,54.96
2023-02-11T21:24:32.810Z,55.09
2023-02-11T21:27:17.778Z,55.79
2023-02-11T21:30:02.636Z,55.83
2023-02-11T21:32:47.684Z,54.53
2023-02-11T21:35:32.584Z,55.09
2023-02-11T21:38:17.556Z,54.31
2023-02-11T21:41:02.373Z,53.97
2023-02-11T21:43:47.347Z,54.17
2023-02-11T21:46:32.351Z,53.81
2023-02-11T21:49:17.120Z,53.94
2023-02-11T21:52:02.158Z,53.72
2023-02-11T21:54:46.927Z,53.74
2023-02-11T21:57:31.943Z,54.32
2023-02-11T22:00:16.684Z,55.15
2023-02-11T22:03:01.536Z,55.64
2023-02-11T22:05:46.553Z,54.22
2023-02-11T22:08:31.462Z,53.93
2023-02-11T22:11:16.493Z,54.70
2023-02-11T22:14:01.283Z,54.34
2023-02-11T22:16:46.262Z,54.11
2023-02-11T22:19:31.133Z,54.15
2023-02-11T22:22:16.026Z,52.87
2023-02-11T22:25:00.897Z,53.00
2023-02-11T22:27:45.993Z,52.83
2023-02-11T22:30:30.894Z,52.88
2023-02-11T22:33:15.811Z,52.55
2023-02-11T22:36:00.692Z,53.26
2023-02-11T22:38:45.641Z,52.82
2023-02-11T22:41:30.525Z,52.71
2023-02-11T22:44:15.425Z,52.46
2023-02-11T22:47:00.470Z,52.29
2023-02-11T22:49:45.457Z,52.53
2023-02-11T22:52:30.362Z,53.95
2023-02-11T22:55:15.223Z,54.28
2023-02-11T22:57:59.983Z,54.30
2023-02-11T23:00:44.944Z,54.28
2023-02-11T23:03:29.952Z,53.75
2023-02-11T23:06:14.833Z,53.99
2023-02-11T23:08:59.567Z,53.51
2023-02-11T23:11:44.608Z,54.87
2023-02-11T23:14:29.484Z,54.49
2023-02-11T23:17:14.437Z,54.82
2023-02-11T23:19:59.213Z,55.18
2023-02-11T23:22:44.278Z,55.49
2023-02-11T23:25:29.212Z,55.17
2023-02-11T23:28:14.023Z,55.26
2023-02-11T23:30:58.889Z,54.54
2023-02-11T23:33:43.694Z,54.77
2023-02-11T23:36:28.690Z,55.34
2023-02-11T23:39:13.433Z,55.13
2023-02-11T23:41:58.343Z,56.54
2023-02-11T23:44:43.229Z,56.07
2023-02-11T23:47:28.130Z,56.97
2023-02-11T23:50:13.058Z,56.28
2023-02-11T23:52:57.933Z,57.21
2023-02-11T23:55:43.025Z,57.58
2023-02-11T23:58:27.843Z,57.12
